Aérodrome :
LOGIN :

S'inscrire | Disclaimer

   EN    FR    IT 

 










Légende :    VFR   VFR Marginal   IFR   IFR Intensif   IFR Très Intensif
Visi : 
Plafond : 
>= 8 km
>= 3000ft
5 à 8 km
1000 à 3000 ft
1500m à 5 km
500 à 1000 ft
800 à 1500m
200 à 500 ft
< 800m
< 200 ft
Symboles :   Orages  Brouillard  Fortes neiges  Fortes précipitations  Vent > 20 kt
SIGMETs :   Divers  Orages  Givrage  Turbulence  Onde Orograph.  Cendres Volcan.






- Altitude de l'aérodrome : 1071 ft
- Code IATA : LWO


UKLL - L'viv

DERNIER METAR :
  • 091800Z 29002MPS CAVOK 14/M03 Q1017 R31/CLRD// NOSIG

METARs EXPIRÉS :
  • 091730Z 30002MPS CAVOK 15/M04 Q1017 R31/D NOSIG
  • 091700Z 32004MPS CAVOK 18/M04 Q1016 R31/D NOSIG
  • 091630Z 31005MPS CAVOK 19/M05 Q1016 R31/D NOSIG
  • 091600Z 31005MPS CAVOK 20/M04 Q1016 R31/CLRD// NOSIG
  • 091530Z 30006MPS 280V340 CAVOK 21/M04 Q1017 R31/D NOSIG

TAF TAF UKLL
Valide du 09 à 18h jusqu'au 10 à 18h UTC


091706Z 0918/1018 32004MPS 9999 BKN030
TEMPO 0918/1003 34006G12MPS
BECMG 1003/1005 34005MPS
TEMPO 1005/1018 36007G12MPS



MET'MAP, la Météo Aéronautique d'un coup d'oeil ! - Copyright ORBIFLY Décembre 2007 - Disclaimer

ORBIFLY MET'MAP TEAM :

Programmation & Développement : Alexandra Zaïnal
Sur une idée originale de : Baudouin d'Aumeries
Assistance à la programmation : Marc-Olivier Méhu
Soutien technique & logistique : Manuel Goepfert

Contact : metmap@orbifly.com




SOURCES & CREDITS :

   NOAA